Orto / Ocaso: 05:27 / 19:16 UTC (Datos para LEAX 07-08-2020)

[fuente: ADDS]

METAR:


LEMG 072000Z 12003KT 080V150 CAVOK 26/22 Q1018 NOSIG =
TAF LEMG 071700Z 0718/0818 14009KT CAVOK TX32/0813Z TN24/0806Z BECMG 0719/0722 VRB02KT PROB30 TEMPO 0723/0806 28006KT BECMG 0808/0810 13006KT LEGR 072000Z VRB07G18KT CAVOK 34/08 Q1018 =
TAF LEGR 072000Z 0721/0821 VRB03KT CAVOK TX40/0815Z TN22/0805Z BECMG 0811/0814 15010KT BECMG 0819/0821 VRB03KT LEZL 072000Z 21007KT 170V240 CAVOK 30/19 Q1015 NOSIG =
TAF LEZL 072000Z 0721/0821 22010KT CAVOK TX39/0815Z TN23/0805Z BECMG 0721/0724 VRB03KT BECMG 0815/0818 23010KT LEAM 072000Z 07010KT CAVOK 29/12 Q1016 =
TAF LEAM 072000Z 0721/0821 VRB03KT CAVOK TX35/0814Z TN24/0805Z BECMG 0810/0812 20010KT BECMG 0818/0820 VRB03KT LEBA 072000Z AUTO 25006KT 230V290 CAVOK 33/14 Q1015 =
TAF LEBA 071400Z 0715/0815 25010KT CAVOK TX41/0815Z TN24/0805Z BECMG 0723/0802 VRB02KT LEJR 072030Z 27007KT 240V310 CAVOK 25/21 Q1017 =
TAF LEJR 071700Z 0718/0818 26010KT CAVOK TX38/0815Z TN19/0806Z BECMG 0720/0723 VRB02KT BECMG 0812/0814 17010KT GEML 072000Z AUTO 06004KT 030V100 9999 FEW013 26/23 Q1017 =
TAF GEML 072000Z 0721/0821 09005KT 9999 FEW010 SCT020 TX30/0813Z TN24/0805Z PROB40 TEMPO 0800/0810 BKN010 LXGB 071950Z AUTO 11011KT 9999 // FEW190/// 25/22 Q1017 =
TAF LXGB 071344Z 0715/0723 09010KT 9999 FEW018 TEMPO 0715/0718 SCT020

TAFOR:


TAF LEMG 071700Z 0718/0818 14009KT CAVOK TX32/0813Z TN24/0806Z BECMG 0719/0722 VRB02KT PROB30 TEMPO 0723/0806 28006KT BECMG 0808/0810 13006KT =
TAF LEGR 072000Z 0721/0821 VRB03KT CAVOK TX40/0815Z TN22/0805Z BECMG 0811/0814 15010KT BECMG 0819/0821 VRB03KT =
TAF LEZL 072000Z 0721/0821 22010KT CAVOK TX39/0815Z TN23/0805Z BECMG 0721/0724 VRB03KT BECMG 0815/0818 23010KT =
TAF LEAM 072000Z 0721/0821 VRB03KT CAVOK TX35/0814Z TN24/0805Z BECMG 0810/0812 20010KT BECMG 0818/0820 VRB03KT =
TAF LEBA 071400Z 0715/0815 25010KT CAVOK TX41/0815Z TN24/0805Z BECMG 0723/0802 VRB02KT =
TAF LEJR 071700Z 0718/0818 26010KT CAVOK TX38/0815Z TN19/0806Z BECMG 0720/0723 VRB02KT BECMG 0812/0814 17010KT =
TAF GEML 072000Z 0721/0821 09005KT 9999 FEW010 SCT020 TX30/0813Z TN24/0805Z PROB40 TEMPO 0800/0810 BKN010 =
TAF LXGB 071344Z 0715/0723 09010KT 9999 FEW018 TEMPO 0715/0718 SCT020 =

Recuerde que, aunque regularmente actualizada, la información meteorológica aquí presentada no debe ser utilizada para la planificación de vuelos. Si lo desea, puede consultar la información meteorológica adecuada, tanto de aeródromos como en ruta, por las vías oficialmente establecidas en la legislación -> AQUí

Utilizamos "cookies" propias y de terceros para analizar nuestros servicios, medir las audiencias, personalizar el contenido que ofrecemos y mostrar información adaptada a sus intereses mediante la obtención de los datos necesarios para perfilar sus hábitos de navegación e inferir grupos de interés, siempre de modo anónimo. Si continúa utilizando el sitio web AEROCLUBMALAGA.COM, significa que acepta sus términos y condiciones y el uso de "cookies" al utilizar el sitio web y nuestros servicios. Asimismo, podemos utilizar fuentes de datos externas para elaborar estos grupos de interés, así compartir los análisis de navegación y los grupos de interés inferidos con terceros con el objetivo de personalizar los contenidos. Para obtener más información sobre las cookies que utilizamos y cómo eliminarlas, consulte nuestra política de privacidad.

Acepto las cookies de esta página web.
EU Cookie Directive plugin by www.channeldigital.co.uk